createdAt,value
2019-02-14T00:01:00.121Z,56.20
2019-02-14T00:03:30.301Z,56.20
2019-02-14T00:06:01.707Z,55.60
2019-02-14T00:08:31.223Z,55.70
2019-02-14T00:11:00.729Z,56.10
2019-02-14T00:13:31.244Z,56.30
2019-02-14T00:16:01.305Z,56.00
2019-02-14T00:18:31.966Z,56.40
2019-02-14T00:21:02.121Z,56.40
2019-02-14T00:23:34.063Z,56.70
2019-02-14T00:26:22.106Z,57.10
2019-02-14T00:28:53.757Z,57.40
2019-02-14T00:31:23.034Z,57.40
2019-02-14T00:33:54.003Z,57.40
2019-02-14T00:36:25.443Z,57.10
2019-02-14T00:38:56.441Z,57.00
2019-02-14T00:41:27.097Z,56.80
2019-02-14T00:43:57.233Z,57.40
2019-02-14T00:46:27.633Z,57.80
2019-02-14T00:48:59.076Z,58.80
2019-02-14T00:51:28.911Z,58.90
2019-02-14T00:54:00.461Z,58.90
2019-02-14T00:56:32.811Z,59.40
2019-02-14T00:59:01.478Z,59.50
2019-02-14T01:01:30.961Z,59.80
2019-02-14T01:04:03.814Z,58.90
2019-02-14T01:06:33.819Z,58.10
2019-02-14T01:09:03.903Z,58.40
2019-02-14T01:11:34.744Z,58.30
2019-02-14T01:14:05.167Z,58.60
2019-02-14T01:16:35.810Z,58.80
2019-02-14T01:19:05.622Z,59.20
2019-02-14T01:21:36.020Z,59.70
2019-02-14T01:24:06.251Z,59.90
2019-02-14T01:26:36.144Z,60.10
2019-02-14T01:29:05.562Z,59.90
2019-02-14T01:31:36.038Z,59.20
2019-02-14T01:34:06.314Z,58.90
2019-02-14T01:36:37.176Z,58.60
2019-02-14T01:39:09.815Z,58.10
2019-02-14T01:41:40.909Z,56.90
2019-02-14T01:44:10.852Z,56.40
2019-02-14T01:46:40.110Z,56.30
2019-02-14T01:49:10.836Z,55.60
2019-02-14T01:51:41.435Z,53.60
2019-02-14T01:54:12.174Z,51.90
2019-02-14T01:56:42.661Z,50.70
2019-02-14T01:59:12.993Z,50.50
2019-02-14T02:01:43.286Z,50.50
2019-02-14T02:04:14.538Z,50.90
2019-02-14T02:06:44.850Z,51.00
2019-02-14T02:09:17.026Z,51.00
2019-02-14T02:11:47.606Z,51.50
2019-02-14T02:14:19.280Z,52.10
2019-02-14T02:16:49.531Z,52.40
2019-02-14T02:19:19.271Z,53.80
2019-02-14T02:21:50.955Z,54.40
2019-02-14T02:24:22.639Z,55.20
2019-02-14T02:26:52.044Z,56.30
2019-02-14T02:29:26.310Z,56.70
2019-02-14T02:31:56.259Z,57.60
2019-02-14T02:34:27.402Z,57.70
2019-02-14T02:36:56.806Z,56.90
2019-02-14T02:39:27.610Z,55.20
2019-02-14T02:41:57.894Z,53.40
2019-02-14T02:44:29.328Z,50.90
2019-02-14T02:46:58.861Z,50.00
2019-02-14T02:49:29.485Z,49.70
2019-02-14T02:52:00.263Z,49.80
2019-02-14T02:54:29.784Z,49.60
2019-02-14T02:56:59.456Z,49.20
2019-02-14T02:59:29.824Z,48.70
2019-02-14T03:02:00.470Z,48.70
2019-02-14T03:04:30.341Z,49.40
2019-02-14T03:07:01.258Z,48.20
2019-02-14T03:09:33.445Z,48.70
2019-02-14T03:12:02.651Z,49.80
2019-02-14T03:14:35.312Z,50.50
2019-02-14T03:17:05.046Z,50.80
2019-02-14T03:19:35.506Z,51.30
2019-02-14T03:22:05.043Z,51.30
2019-02-14T03:24:34.126Z,52.70
2019-02-14T03:27:04.266Z,52.10
2019-02-14T03:29:34.674Z,51.70
2019-02-14T03:32:04.336Z,51.30
2019-02-14T03:34:34.608Z,52.00
2019-02-14T03:37:03.526Z,51.50
2019-02-14T03:39:33.486Z,51.30
2019-02-14T03:42:03.384Z,50.80
2019-02-14T03:44:34.376Z,50.10
2019-02-14T03:47:06.737Z,49.90
2019-02-14T03:49:38.251Z,50.50
2019-02-14T03:52:07.951Z,52.90
2019-02-14T03:54:38.219Z,52.20
2019-02-14T03:57:09.694Z,54.30
2019-02-14T03:59:39.995Z,56.70
2019-02-14T04:02:11.227Z,57.70
2019-02-14T04:04:42.089Z,59.00
2019-02-14T04:07:13.984Z,60.60
2019-02-14T04:09:46.209Z,61.10
2019-02-14T04:12:16.964Z,62.80
2019-02-14T04:14:47.871Z,63.30
2019-02-14T04:17:21.647Z,61.00
2019-02-14T04:19:51.907Z,60.10
2019-02-14T04:22:22.536Z,61.30
2019-02-14T04:24:53.791Z,62.00
2019-02-14T04:27:24.339Z,63.70
2019-02-14T04:29:53.684Z,64.10
2019-02-14T04:32:24.288Z,63.40
2019-02-14T04:34:54.649Z,63.50
2019-02-14T04:37:25.150Z,64.80
2019-02-14T04:39:55.589Z,65.50
2019-02-14T04:42:24.905Z,65.20
2019-02-14T04:44:54.379Z,62.50
2019-02-14T04:47:23.349Z,63.50
2019-02-14T04:49:53.960Z,60.20
2019-02-14T04:52:25.350Z,62.10
2019-02-14T04:54:54.760Z,63.80
2019-02-14T04:57:23.991Z,65.40
2019-02-14T04:59:54.279Z,66.30
2019-02-14T05:02:25.699Z,67.80
2019-02-14T05:04:55.735Z,69.20
2019-02-14T05:07:25.999Z,70.30
2019-02-14T05:09:55.659Z,70.30
2019-02-14T05:12:26.700Z,71.80
2019-02-14T05:14:56.552Z,73.20
2019-02-14T05:17:26.669Z,72.70
2019-02-14T05:19:58.282Z,73.70
2019-02-14T05:22:29.386Z,72.60
2019-02-14T05:24:59.115Z,71.80
2019-02-14T05:27:33.187Z,71.90
2019-02-14T05:30:02.780Z,75.10
2019-02-14T05:32:32.743Z,72.90
2019-02-14T05:35:02.570Z,71.80
2019-02-14T05:37:32.325Z,74.00
2019-02-14T05:40:02.430Z,72.20
2019-02-14T05:42:33.290Z,73.90
2019-02-14T05:45:03.097Z,74.10
2019-02-14T05:47:34.249Z,74.40
2019-02-14T05:50:05.356Z,75.00
2019-02-14T05:52:35.649Z,76.50
2019-02-14T05:55:06.720Z,77.30
2019-02-14T05:57:38.485Z,77.80
2019-02-14T06:00:10.820Z,79.20
2019-02-14T06:02:40.677Z,77.80
2019-02-14T06:05:10.403Z,79.30
2019-02-14T06:07:40.729Z,79.50
2019-02-14T06:10:10.892Z,80.10
2019-02-14T06:12:41.892Z,81.80
2019-02-14T06:15:11.771Z,82.00
2019-02-14T06:17:43.109Z,75.50
2019-02-14T06:20:14.019Z,71.80
2019-02-14T06:22:44.068Z,69.70
2019-02-14T06:25:15.012Z,71.00
2019-02-14T06:27:44.769Z,69.80
2019-02-14T06:30:14.677Z,71.20
2019-02-14T06:32:45.177Z,72.80
2019-02-14T06:35:15.144Z,73.30
2019-02-14T06:37:45.391Z,74.30
2019-02-14T06:40:17.119Z,75.60
2019-02-14T06:42:46.497Z,76.30
2019-02-14T06:45:16.175Z,76.70
2019-02-14T06:47:47.357Z,74.80
2019-02-14T06:50:17.054Z,70.60
2019-02-14T06:52:46.446Z,70.50
2019-02-14T06:55:15.944Z,68.70
2019-02-14T06:57:45.730Z,68.10
2019-02-14T07:00:16.523Z,67.60
2019-02-14T07:02:46.726Z,67.30
2019-02-14T07:05:15.359Z,64.50
2019-02-14T07:07:44.372Z,62.80
2019-02-14T07:10:14.191Z,62.80
2019-02-14T07:12:44.188Z,63.70
2019-02-14T07:15:14.493Z,61.70
2019-02-14T07:17:43.576Z,61.40
2019-02-14T07:20:15.233Z,62.10
2019-02-14T07:22:46.574Z,60.70
2019-02-14T07:25:16.387Z,58.90
2019-02-14T07:27:47.542Z,57.80
2019-02-14T07:30:18.719Z,57.30
2019-02-14T07:32:48.574Z,56.80
2019-02-14T07:35:20.943Z,55.10
2019-02-14T07:37:50.168Z,51.90
2019-02-14T07:40:19.618Z,49.50
2019-02-14T07:42:49.362Z,47.40
2019-02-14T07:45:18.759Z,44.00
2019-02-14T07:47:48.059Z,43.00
2019-02-14T07:50:18.781Z,40.80
2019-02-14T07:52:49.739Z,40.00
2019-02-14T07:55:22.709Z,39.60
2019-02-14T07:57:54.784Z,39.90
2019-02-14T08:00:27.003Z,39.10
2019-02-14T08:02:57.066Z,39.70
2019-02-14T08:05:28.310Z,42.20
2019-02-14T08:07:57.515Z,43.80
2019-02-14T08:10:29.155Z,43.10
2019-02-14T08:12:58.414Z,44.10
2019-02-14T08:15:28.867Z,43.20
2019-02-14T08:17:57.399Z,41.60
2019-02-14T08:20:27.339Z,39.20
2019-02-14T08:22:58.109Z,36.40
2019-02-14T08:25:29.349Z,35.10
2019-02-14T08:27:59.126Z,33.00
2019-02-14T08:30:29.307Z,31.00
2019-02-14T08:32:59.725Z,31.20
2019-02-14T08:35:30.042Z,29.70
2019-02-14T08:37:59.367Z,29.50
2019-02-14T08:40:31.019Z,28.80
2019-02-14T08:43:01.378Z,29.30
2019-02-14T08:45:31.167Z,29.10
2019-02-14T08:48:01.609Z,28.70
2019-02-14T08:50:32.244Z,28.70
2019-02-14T08:53:03.483Z,28.50
2019-02-14T08:55:33.757Z,28.00
2019-02-14T08:58:04.637Z,27.20
2019-02-14T09:00:36.495Z,27.50
2019-02-14T09:03:07.294Z,27.70
2019-02-14T09:05:38.551Z,27.70
2019-02-14T09:08:10.207Z,27.30
2019-02-14T09:10:40.069Z,27.50
2019-02-14T09:13:16.933Z,26.60
2019-02-14T09:15:40.827Z,26.20
2019-02-14T09:18:11.708Z,26.80
2019-02-14T09:20:42.339Z,26.50
2019-02-14T09:23:14.674Z,26.20
2019-02-14T09:25:45.798Z,26.40
2019-02-14T09:28:18.002Z,26.20
2019-02-14T09:30:47.868Z,25.80
2019-02-14T09:33:20.295Z,25.10
2019-02-14T09:35:50.557Z,24.90
2019-02-14T09:38:20.796Z,24.90
2019-02-14T09:40:51.643Z,24.70
2019-02-14T09:43:29.664Z,24.50
2019-02-14T09:45:53.943Z,24.30
2019-02-14T09:48:24.466Z,24.50
2019-02-14T09:50:55.267Z,24.60
2019-02-14T09:53:24.993Z,24.50
2019-02-14T09:55:53.798Z,24.60
2019-02-14T09:58:24.502Z,24.90
2019-02-14T10:00:54.881Z,25.10
2019-02-14T10:03:25.825Z,25.40
2019-02-14T10:05:57.502Z,25.30
2019-02-14T10:08:27.624Z,24.50
2019-02-14T10:10:58.777Z,24.60
2019-02-14T10:13:29.273Z,24.50
2019-02-14T10:15:59.099Z,23.40
2019-02-14T10:18:32.232Z,24.00
2019-02-14T10:21:03.257Z,23.00
2019-02-14T10:23:33.762Z,23.00
2019-02-14T10:26:03.422Z,22.90
2019-02-14T10:28:33.431Z,22.90
2019-02-14T10:31:04.272Z,22.70
2019-02-14T10:33:34.320Z,22.80
2019-02-14T10:36:04.421Z,23.00
2019-02-14T10:38:33.776Z,22.30
2019-02-14T10:41:03.643Z,21.80
2019-02-14T10:43:34.594Z,22.30
2019-02-14T10:46:04.859Z,22.20
2019-02-14T10:48:36.087Z,21.80
2019-02-14T10:51:07.717Z,21.50
2019-02-14T10:53:38.777Z,21.80
2019-02-14T10:56:10.561Z,21.80
2019-02-14T10:58:39.760Z,21.40
2019-02-14T11:01:12.610Z,21.10
2019-02-14T11:03:43.542Z,21.70
2019-02-14T11:06:14.967Z,21.90
2019-02-14T11:08:46.017Z,21.50
2019-02-14T11:11:17.149Z,21.40
2019-02-14T11:13:47.094Z,21.50
2019-02-14T11:16:17.724Z,21.30
2019-02-14T11:18:49.226Z,20.90
2019-02-14T11:21:19.351Z,20.20
2019-02-14T11:23:48.356Z,19.80
2019-02-14T11:26:19.475Z,19.30
2019-02-14T11:28:50.799Z,19.70
2019-02-14T11:31:21.492Z,19.90
2019-02-14T11:33:50.587Z,19.50
2019-02-14T11:36:20.547Z,19.40
2019-02-14T11:38:50.202Z,20.20
2019-02-14T11:41:19.923Z,19.20
2019-02-14T11:43:50.248Z,19.40
2019-02-14T11:46:20.152Z,19.20
2019-02-14T11:48:50.762Z,19.90
2019-02-14T11:51:20.530Z,20.00
2019-02-14T11:53:50.331Z,20.50
2019-02-14T11:56:19.529Z,20.10
2019-02-14T11:58:50.114Z,19.80
2019-02-14T12:01:19.924Z,19.70
2019-02-14T12:03:51.227Z,19.30
2019-02-14T12:06:22.067Z,20.10
2019-02-14T12:08:59.868Z,20.30
2019-02-14T12:11:23.623Z,20.90
2019-02-14T12:13:54.225Z,20.20
2019-02-14T12:16:25.769Z,19.90
2019-02-14T12:18:55.851Z,19.20
2019-02-14T12:21:27.457Z,18.80
2019-02-14T12:23:57.819Z,18.80
2019-02-14T12:26:26.880Z,18.30
2019-02-14T12:28:55.748Z,18.50
2019-02-14T12:31:25.654Z,18.40
2019-02-14T12:33:56.785Z,18.30
2019-02-14T12:36:27.550Z,17.80
2019-02-14T12:38:57.475Z,18.10
2019-02-14T12:41:26.958Z,17.90
2019-02-14T12:43:56.936Z,18.10
2019-02-14T12:46:30.358Z,17.80
2019-02-14T12:49:02.623Z,17.60
2019-02-14T12:51:32.550Z,17.40
2019-02-14T12:54:03.819Z,17.90
2019-02-14T12:56:34.677Z,16.90
2019-02-14T12:59:05.932Z,16.80
2019-02-14T13:01:36.850Z,17.20
2019-02-14T13:04:06.542Z,16.40
2019-02-14T13:06:37.167Z,16.10
2019-02-14T13:09:19.313Z,15.30
2019-02-14T13:11:42.170Z,15.60
2019-02-14T13:14:11.692Z,15.30
2019-02-14T13:16:43.943Z,15.00
2019-02-14T13:19:14.173Z,15.30
2019-02-14T13:21:44.030Z,14.90
2019-02-14T13:24:14.650Z,14.40
2019-02-14T13:26:46.114Z,13.90
2019-02-14T13:29:18.095Z,14.20
2019-02-14T13:31:48.470Z,14.00
2019-02-14T13:34:18.628Z,14.20
2019-02-14T13:36:47.807Z,13.60
2019-02-14T13:39:29.084Z,13.70
2019-02-14T13:41:52.250Z,14.10
2019-02-14T13:44:22.172Z,13.90
2019-02-14T13:46:53.311Z,13.40
2019-02-14T13:49:23.776Z,13.60
2019-02-14T13:51:55.786Z,12.80
2019-02-14T13:54:26.737Z,13.80
2019-02-14T13:56:57.367Z,13.40
2019-02-14T13:59:29.063Z,13.40
2019-02-14T14:01:59.524Z,14.00
2019-02-14T14:04:32.995Z,15.30
2019-02-14T14:07:02.868Z,16.10
2019-02-14T14:09:38.553Z,16.60
2019-02-14T14:12:04.660Z,16.40
2019-02-14T14:14:33.928Z,16.50
2019-02-14T14:17:05.682Z,16.40
2019-02-14T14:19:36.669Z,15.40
2019-02-14T14:22:09.188Z,15.50
2019-02-14T14:24:39.444Z,15.20
2019-02-14T14:27:09.257Z,15.60
2019-02-14T14:29:42.639Z,15.20
2019-02-14T14:32:13.996Z,14.30
2019-02-14T14:34:43.947Z,13.90
2019-02-14T14:37:14.193Z,13.40
2019-02-14T14:39:47.858Z,14.80
2019-02-14T14:42:35.162Z,14.60
2019-02-14T14:45:08.857Z,14.10
2019-02-14T14:47:39.745Z,14.50
2019-02-14T14:50:10.328Z,14.90
2019-02-14T14:52:40.805Z,14.20
2019-02-14T14:55:10.886Z,15.20
2019-02-14T14:57:40.290Z,14.60
2019-02-14T15:00:11.522Z,16.10
2019-02-14T15:02:41.702Z,16.30
2019-02-14T15:05:11.154Z,16.70
2019-02-14T15:07:41.200Z,17.50
2019-02-14T15:10:12.096Z,17.00
2019-02-14T15:12:42.707Z,17.40
2019-02-14T15:15:12.948Z,17.50
2019-02-14T15:17:45.044Z,17.50
2019-02-14T15:20:15.379Z,18.70
2019-02-14T15:22:45.983Z,19.00
2019-02-14T15:25:16.964Z,19.40
2019-02-14T15:27:48.242Z,20.30
2019-02-14T15:30:19.755Z,21.10
2019-02-14T15:32:52.111Z,21.90
2019-02-14T15:35:22.210Z,21.80
2019-02-14T15:37:52.510Z,22.10
2019-02-14T15:40:27.082Z,22.40
2019-02-14T15:42:59.466Z,22.70
2019-02-14T15:45:28.937Z,22.00
2019-02-14T15:48:00.098Z,22.70
2019-02-14T15:50:32.172Z,22.40
2019-02-14T15:53:04.468Z,23.10
2019-02-14T15:55:34.849Z,22.80
2019-02-14T15:58:09.335Z,22.70
2019-02-14T16:00:38.965Z,22.60
2019-02-14T16:03:09.473Z,23.00
2019-02-14T16:05:40.286Z,23.70
2019-02-14T16:08:12.718Z,23.10
2019-02-14T16:10:42.445Z,23.30
2019-02-14T16:13:11.890Z,23.40
2019-02-14T16:15:43.120Z,22.70
2019-02-14T16:18:13.888Z,23.10
2019-02-14T16:20:45.523Z,23.10
2019-02-14T16:23:15.744Z,23.40
2019-02-14T16:25:46.722Z,23.70
2019-02-14T16:28:17.707Z,23.40
2019-02-14T16:30:48.523Z,23.50
2019-02-14T16:33:19.157Z,23.50
2019-02-14T16:35:49.950Z,23.20
2019-02-14T16:38:22.245Z,23.40
2019-02-14T16:40:53.012Z,23.60
2019-02-14T16:43:23.258Z,23.90
2019-02-14T16:45:53.202Z,24.20
2019-02-14T16:48:24.200Z,24.40
2019-02-14T16:50:56.279Z,24.60
2019-02-14T16:53:28.452Z,25.20
2019-02-14T16:56:02.162Z,25.20
2019-02-14T16:58:33.614Z,25.10
2019-02-14T17:01:03.095Z,25.40
2019-02-14T17:03:32.427Z,25.50
2019-02-14T17:06:06.449Z,26.00
2019-02-14T17:08:38.159Z,25.90
2019-02-14T17:11:13.889Z,25.50
2019-02-14T17:13:45.463Z,25.30
2019-02-14T17:16:17.187Z,26.30
2019-02-14T17:18:49.692Z,26.60
2019-02-14T17:21:23.050Z,26.70
2019-02-14T17:23:53.769Z,26.90
2019-02-14T17:26:23.328Z,26.10
2019-02-14T17:28:54.677Z,25.80
2019-02-14T17:31:27.342Z,25.80
2019-02-14T17:33:58.033Z,26.40
2019-02-14T17:36:27.989Z,26.30
2019-02-14T17:39:01.912Z,27.00
2019-02-14T17:41:36.274Z,27.60
2019-02-14T17:44:06.873Z,29.90
2019-02-14T17:46:37.332Z,30.40
2019-02-14T17:49:09.406Z,31.30
2019-02-14T17:51:38.781Z,31.10
2019-02-14T17:54:10.363Z,31.40
2019-02-14T17:56:40.721Z,30.50
2019-02-14T17:59:11.450Z,31.20
2019-02-14T18:01:41.796Z,33.10
2019-02-14T18:04:12.286Z,34.10
2019-02-14T18:06:42.023Z,35.50
2019-02-14T18:09:15.501Z,35.80
2019-02-14T18:11:44.001Z,35.20
2019-02-14T18:14:15.824Z,32.70
2019-02-14T18:16:45.468Z,30.70
2019-02-14T18:19:14.907Z,29.80
2019-02-14T18:21:49.764Z,28.30
2019-02-14T18:24:21.341Z,27.80
2019-02-14T18:26:50.796Z,30.00
2019-02-14T18:29:19.922Z,33.60
2019-02-14T18:31:49.687Z,35.60
2019-02-14T18:34:21.669Z,36.50
2019-02-14T18:36:52.283Z,38.60
2019-02-14T18:39:23.334Z,40.50
2019-02-14T18:41:56.536Z,41.90
2019-02-14T18:44:26.927Z,43.60
2019-02-14T18:46:56.355Z,44.20
2019-02-14T18:49:28.219Z,43.40
2019-02-14T18:51:58.508Z,45.00
2019-02-14T18:54:29.878Z,47.90
2019-02-14T18:57:03.151Z,48.40
2019-02-14T18:59:37.150Z,49.30
2019-02-14T19:02:07.615Z,49.90
2019-02-14T19:04:38.285Z,49.10
2019-02-14T19:07:08.946Z,48.20
2019-02-14T19:09:38.419Z,44.00
2019-02-14T19:12:08.603Z,40.00
2019-02-14T19:14:40.127Z,38.10
2019-02-14T19:17:11.814Z,40.10
2019-02-14T19:19:41.717Z,43.60
2019-02-14T19:22:10.644Z,47.40
2019-02-14T19:24:42.121Z,47.30
2019-02-14T19:27:13.382Z,49.20
2019-02-14T19:29:44.896Z,50.90
2019-02-14T19:32:17.969Z,51.80
2019-02-14T19:34:52.260Z,53.00
2019-02-14T19:37:22.216Z,53.50
2019-02-14T19:39:52.463Z,54.70
2019-02-14T19:42:22.610Z,54.40
2019-02-14T19:44:55.128Z,53.60
2019-02-14T19:47:24.697Z,54.60
2019-02-14T19:49:55.565Z,53.00
2019-02-14T19:52:27.517Z,53.90
2019-02-14T19:54:58.533Z,53.90
2019-02-14T19:57:30.457Z,54.60
2019-02-14T20:00:00.549Z,55.30
2019-02-14T20:02:30.601Z,56.20
2019-02-14T20:05:03.925Z,56.80
2019-02-14T20:07:34.912Z,57.50
2019-02-14T20:10:05.666Z,59.10
2019-02-14T20:12:35.011Z,58.50
2019-02-14T20:15:04.634Z,58.40
2019-02-14T20:17:36.126Z,58.80
2019-02-14T20:20:08.227Z,59.40
2019-02-14T20:22:41.115Z,58.60
2019-02-14T20:25:12.930Z,58.80
2019-02-14T20:27:42.642Z,59.80
2019-02-14T20:30:12.338Z,60.00
2019-02-14T20:32:42.649Z,60.60
2019-02-14T20:35:15.250Z,60.80
2019-02-14T20:37:44.625Z,61.40
2019-02-14T20:40:14.834Z,62.50
2019-02-14T20:42:45.258Z,62.60
2019-02-14T20:45:16.619Z,62.20
2019-02-14T20:47:46.636Z,62.80
2019-02-14T20:50:16.951Z,63.10
2019-02-14T20:52:46.561Z,63.00
2019-02-14T20:55:17.534Z,62.70
2019-02-14T20:57:48.779Z,59.70
2019-02-14T21:00:25.407Z,55.80
2019-02-14T21:02:55.411Z,57.30
2019-02-14T21:05:28.283Z,58.20
2019-02-14T21:08:00.612Z,59.90
2019-02-14T21:10:32.103Z,61.70
2019-02-14T21:13:02.799Z,62.50
2019-02-14T21:15:32.223Z,62.90
2019-02-14T21:18:03.977Z,63.80
2019-02-14T21:20:34.779Z,65.30
2019-02-14T21:23:09.708Z,61.10
2019-02-14T21:25:39.406Z,61.90
2019-02-14T21:28:10.452Z,64.50
2019-02-14T21:30:42.849Z,65.30
2019-02-14T21:33:12.823Z,65.30
2019-02-14T21:35:42.037Z,67.00
2019-02-14T21:38:11.516Z,67.10
2019-02-14T21:40:41.819Z,67.50
2019-02-14T21:43:11.309Z,68.00
2019-02-14T21:45:43.214Z,67.20
2019-02-14T21:48:13.982Z,66.10
2019-02-14T21:50:43.622Z,65.60
2019-02-14T21:53:16.393Z,65.30
2019-02-14T21:55:49.374Z,66.50
2019-02-14T21:58:19.651Z,67.30
2019-02-14T22:00:51.241Z,67.40
2019-02-14T22:03:22.230Z,64.00
2019-02-14T22:05:53.180Z,58.50
2019-02-14T22:08:25.847Z,57.40
2019-02-14T22:10:55.638Z,58.20
2019-02-14T22:13:26.144Z,61.20
2019-02-14T22:15:55.931Z,62.30
2019-02-14T22:18:26.140Z,61.50
2019-02-14T22:20:58.053Z,62.40
2019-02-14T22:23:31.208Z,64.20
2019-02-14T22:26:01.530Z,63.00
2019-02-14T22:28:34.404Z,61.20
2019-02-14T22:31:03.787Z,60.70
2019-02-14T22:33:34.712Z,62.40
2019-02-14T22:36:07.017Z,63.80
2019-02-14T22:38:39.156Z,64.70
2019-02-14T22:41:09.530Z,65.90
2019-02-14T22:43:39.630Z,65.20
2019-02-14T22:46:09.596Z,68.00
2019-02-14T22:48:39.340Z,60.80
2019-02-14T22:51:11.339Z,63.10
2019-02-14T22:53:44.886Z,65.30
2019-02-14T22:56:15.801Z,64.40
2019-02-14T22:58:46.949Z,61.10
2019-02-14T23:01:17.892Z,61.10
2019-02-14T23:03:48.469Z,59.70
2019-02-14T23:06:17.851Z,61.90
2019-02-14T23:08:47.358Z,63.70
2019-02-14T23:11:16.412Z,64.90
2019-02-14T23:13:46.754Z,67.00
2019-02-14T23:16:16.513Z,66.90
2019-02-14T23:18:46.918Z,67.30
2019-02-14T23:21:18.455Z,68.70
2019-02-14T23:23:49.256Z,67.90
2019-02-14T23:26:22.518Z,67.00
2019-02-14T23:28:53.712Z,66.70
2019-02-14T23:31:25.436Z,65.90
2019-02-14T23:33:55.316Z,65.90
2019-02-14T23:36:26.019Z,66.40
2019-02-14T23:38:56.415Z,66.00
2019-02-14T23:41:26.815Z,66.60
2019-02-14T23:43:57.083Z,66.00
2019-02-14T23:46:26.733Z,66.80
2019-02-14T23:48:55.858Z,67.00
2019-02-14T23:51:25.953Z,67.90
2019-02-14T23:53:55.397Z,68.60
2019-02-14T23:56:25.274Z,68.90
2019-02-14T23:58:55.235Z,68.30
